sensor_id;sensor_type;location;lat;lon;timestamp;pressure;altitude;pressure_sealevel;temperature;humidity
39443;BME280;25147;52.142;9.960;2023-04-12T00:01:54;100048.81;;;2.50;100.00
39443;BME280;25147;52.142;9.960;2023-04-12T00:04:21;99891.94;;;1.48;100.00
39443;BME280;25147;52.142;9.960;2023-04-12T00:06:54;99712.97;;;0.55;100.00
39443;BME280;25147;52.142;9.960;2023-04-12T00:09:22;99880.00;;;1.57;100.00
39443;BME280;25147;52.142;9.960;2023-04-12T00:11:49;100048.81;;;2.50;100.00
39443;BME280;25147;52.142;9.960;2023-04-12T00:14:16;99723.28;;;0.58;100.00
39443;BME280;25147;52.142;9.960;2023-04-12T00:16:42;99834.28;;;1.44;100.00
39443;BME280;25147;52.142;9.960;2023-04-12T00:19:09;100038.53;;;2.53;100.00
39443;BME280;25147;52.142;9.960;2023-04-12T00:21:36;99813.63;;;1.41;100.00
39443;BME280;25147;52.142;9.960;2023-04-12T00:24:05;99764.97;;;0.94;100.00
39443;BME280;25147;52.142;9.960;2023-04-12T00:26:32;99995.50;;;2.55;100.00
39443;BME280;25147;52.142;9.960;2023-04-12T00:28:59;99908.03;;;2.05;100.00
39443;BME280;25147;52.142;9.960;2023-04-12T00:31:26;99980.91;;;2.61;100.00
39443;BME280;25147;52.142;9.960;2023-04-12T00:33:53;99991.25;;;2.63;100.00
39443;BME280;25147;52.142;9.960;2023-04-12T00:36:20;99983.53;;;2.68;100.00
39443;BME280;25147;52.142;9.960;2023-04-12T00:38:46;99937.69;;;2.45;100.00
39443;BME280;25147;52.142;9.960;2023-04-12T00:41:16;99814.84;;;1.78;99.77
39443;BME280;25147;52.142;9.960;2023-04-12T00:43:43;99993.97;;;2.77;99.48
39443;BME280;25147;52.142;9.960;2023-04-12T00:46:09;99974.16;;;2.77;99.54
39443;BME280;25147;52.142;9.960;2023-04-12T00:48:37;99622.09;;;0.67;99.02
39443;BME280;25147;52.142;9.960;2023-04-12T00:51:05;99861.72;;;2.21;99.31
39443;BME280;25147;52.142;9.960;2023-04-12T00:53:33;99955.22;;;2.80;99.45
39443;BME280;25147;52.142;9.960;2023-04-12T00:56:00;99770.97;;;1.75;98.95
39443;BME280;25147;52.142;9.960;2023-04-12T00:58:29;99846.25;;;2.28;98.23
39443;BME280;25147;52.142;9.960;2023-04-12T01:00:57;99863.56;;;2.36;97.47
39443;BME280;25147;52.142;9.960;2023-04-12T01:03:24;99849.69;;;2.24;97.08
39443;BME280;25147;52.142;9.960;2023-04-12T01:06:05;99939.00;;;3.03;97.35
39443;BME280;25147;52.142;9.960;2023-04-12T01:08:40;99873.25;;;2.68;96.40
39443;BME280;25147;52.142;9.960;2023-04-12T01:11:16;99932.19;;;3.14;95.76
39443;BME280;25147;52.142;9.960;2023-04-12T01:13:50;99777.41;;;2.30;94.25
39443;BME280;25147;52.142;9.960;2023-04-12T01:16:24;99915.03;;;3.30;93.94
39443;BME280;25147;52.142;9.960;2023-04-12T01:18:55;99915.94;;;3.38;94.04
39443;BME280;25147;52.142;9.960;2023-04-12T01:21:30;99919.41;;;3.45;92.17
39443;BME280;25147;52.142;9.960;2023-04-12T01:24:10;99503.03;;;1.00;90.35
39443;BME280;25147;52.142;9.960;2023-04-12T01:26:47;99947.13;;;3.69;88.93
39443;BME280;25147;52.142;9.960;2023-04-12T01:29:20;99856.44;;;3.38;87.44
39443;BME280;25147;52.142;9.960;2023-04-12T01:31:50;99825.41;;;3.49;87.19
39443;BME280;25147;52.142;9.960;2023-04-12T01:34:19;99888.50;;;3.94;86.78
39443;BME280;25147;52.142;9.960;2023-04-12T01:36:48;99719.19;;;3.01;85.68
39443;BME280;25147;52.142;9.960;2023-04-12T01:39:17;99793.47;;;3.50;84.96
39443;BME280;25147;52.142;9.960;2023-04-12T01:41:44;99878.19;;;4.08;84.46
39443;BME280;25147;52.142;9.960;2023-04-12T01:44:13;99873.84;;;4.13;83.81
39443;BME280;25147;52.142;9.960;2023-04-12T01:46:42;99821.16;;;3.80;82.83
39443;BME280;25147;52.142;9.960;2023-04-12T01:49:11;99865.25;;;4.21;82.35
39443;BME280;25147;52.142;9.960;2023-04-12T01:51:45;99820.31;;;3.99;81.91
39443;BME280;25147;52.142;9.960;2023-04-12T01:54:18;99860.06;;;4.34;81.71
39443;BME280;25147;52.142;9.960;2023-04-12T01:56:52;99873.00;;;4.37;81.25
39443;BME280;25147;52.142;9.960;2023-04-12T01:59:21;99645.09;;;3.05;80.81
39443;BME280;25147;52.142;9.960;2023-04-12T02:01:51;99689.13;;;3.40;80.56
39443;BME280;25147;52.142;9.960;2023-04-12T02:04:18;99755.56;;;3.89;80.35
39443;BME280;25147;52.142;9.960;2023-04-12T02:06:47;99837.59;;;4.45;80.35
39443;BME280;25147;52.142;9.960;2023-04-12T02:09:14;99824.63;;;4.40;81.06
39443;BME280;25147;52.142;9.960;2023-04-12T02:11:45;99654.59;;;3.46;81.08
39443;BME280;25147;52.142;9.960;2023-04-12T02:14:12;99735.72;;;3.97;80.78
39443;BME280;25147;52.142;9.960;2023-04-12T02:16:38;99715.00;;;3.86;80.57
39443;BME280;25147;52.142;9.960;2023-04-12T02:19:08;99810.78;;;4.48;80.35
39443;BME280;25147;52.142;9.960;2023-04-12T02:21:38;99803.91;;;4.48;80.81
39443;BME280;25147;52.142;9.960;2023-04-12T02:24:06;99647.72;;;3.57;80.17
39443;BME280;25147;52.142;9.960;2023-04-12T02:26:33;99811.66;;;4.51;80.43
39443;BME280;25147;52.142;9.960;2023-04-12T02:29:00;99539.06;;;3.00;79.72
39443;BME280;25147;52.142;9.960;2023-04-12T02:31:27;99790.94;;;4.54;79.87
39443;BME280;25147;52.142;9.960;2023-04-12T02:33:55;99496.84;;;2.67;79.60
39443;BME280;25147;52.142;9.960;2023-04-12T02:36:23;99789.19;;;4.56;79.87
39443;BME280;25147;52.142;9.960;2023-04-12T02:38:50;99773.63;;;4.58;80.44
39443;BME280;25147;52.142;9.960;2023-04-12T02:41:16;99342.66;;;1.91;79.86
39443;BME280;25147;52.142;9.960;2023-04-12T02:43:43;99769.28;;;4.61;79.59
39443;BME280;25147;52.142;9.960;2023-04-12T02:46:14;99538.22;;;3.24;78.89
39443;BME280;25147;52.142;9.960;2023-04-12T02:48:41;99344.41;;;2.10;79.01
39443;BME280;25147;52.142;9.960;2023-04-12T02:51:07;99340.97;;;2.14;78.21
39443;BME280;25147;52.142;9.960;2023-04-12T02:53:36;99763.25;;;4.70;78.75
39443;BME280;25147;52.142;9.960;2023-04-12T02:56:02;99690.72;;;4.42;78.36
39443;BME280;25147;52.142;9.960;2023-04-12T02:58:29;99749.41;;;4.74;78.40
39443;BME280;25147;52.142;9.960;2023-04-12T03:00:58;99395.19;;;2.57;78.31
39443;BME280;25147;52.142;9.960;2023-04-12T03:03:25;99755.44;;;4.76;77.95
39443;BME280;25147;52.142;9.960;2023-04-12T03:05:56;99669.16;;;4.36;77.87
39443;BME280;25147;52.142;9.960;2023-04-12T03:08:23;99727.75;;;4.80;78.18
39443;BME280;25147;52.142;9.960;2023-04-12T03:10:51;99718.22;;;4.82;78.34
39443;BME280;25147;52.142;9.960;2023-04-12T03:13:18;99473.53;;;3.29;78.03
39443;BME280;25147;52.142;9.960;2023-04-12T03:15:45;99455.44;;;3.27;78.17
39443;BME280;25147;52.142;9.960;2023-04-12T03:18:12;99382.22;;;2.99;77.52
39443;BME280;25147;52.142;9.960;2023-04-12T03:20:39;99425.25;;;3.25;77.56
39443;BME280;25147;52.142;9.960;2023-04-12T03:23:06;99676.75;;;4.87;78.10
39443;BME280;25147;52.142;9.960;2023-04-12T03:25:32;99456.22;;;3.57;77.85
39443;BME280;25147;52.142;9.960;2023-04-12T03:28:00;99666.34;;;4.88;78.31
39443;BME280;25147;52.142;9.960;2023-04-12T03:30:27;99188.69;;;1.93;78.14
39443;BME280;25147;52.142;9.960;2023-04-12T03:32:54;99712.16;;;4.89;78.09
39443;BME280;25147;52.142;9.960;2023-04-12T03:35:21;99482.91;;;3.68;77.91
39443;BME280;25147;52.142;9.960;2023-04-12T03:37:48;99656.81;;;4.92;77.94
39443;BME280;25147;52.142;9.960;2023-04-12T03:40:14;99454.44;;;3.70;77.11
39443;BME280;25147;52.142;9.960;2023-04-12T03:42:41;99570.63;;;4.43;77.87
39443;BME280;25147;52.142;9.960;2023-04-12T03:45:10;99656.81;;;4.95;78.04
39443;BME280;25147;52.142;9.960;2023-04-12T03:47:37;99559.41;;;4.41;78.08
39443;BME280;25147;52.142;9.960;2023-04-12T03:50:06;99627.41;;;4.96;77.96
39443;BME280;25147;52.142;9.960;2023-04-12T03:52:34;99649.88;;;4.97;77.90
39443;BME280;25147;52.142;9.960;2023-04-12T03:55:01;99211.84;;;2.40;77.46
39443;BME280;25147;52.142;9.960;2023-04-12T03:57:30;99531.00;;;4.28;77.69
39443;BME280;25147;52.142;9.960;2023-04-12T03:59:56;99655.88;;;5.00;78.00
39443;BME280;25147;52.142;9.960;2023-04-12T04:02:25;99638.59;;;5.02;77.53
39443;BME280;25147;52.142;9.960;2023-04-12T04:04:52;99464.63;;;4.11;76.72
39443;BME280;25147;52.142;9.960;2023-04-12T04:07:20;99442.25;;;3.90;76.34
39443;BME280;25147;52.142;9.960;2023-04-12T04:09:47;99567.06;;;4.72;75.97
39443;BME280;25147;52.142;9.960;2023-04-12T04:12:15;99378.47;;;3.77;76.36
39443;BME280;25147;52.142;9.960;2023-04-12T04:14:42;99523.03;;;4.65;75.95
39443;BME280;25147;52.142;9.960;2023-04-12T04:17:09;99579.00;;;4.93;75.26
39443;BME280;25147;52.142;9.960;2023-04-12T04:19:37;99196.19;;;2.74;74.91
39443;BME280;25147;52.142;9.960;2023-04-12T04:22:03;99583.97;;;5.26;74.97
39443;BME280;25147;52.142;9.960;2023-04-12T04:24:30;99581.47;;;5.13;74.50
39443;BME280;25147;52.142;9.960;2023-04-12T04:26:58;99587.34;;;5.32;74.27
39443;BME280;25147;52.142;9.960;2023-04-12T04:29:25;99576.97;;;5.35;74.52
39443;BME280;25147;52.142;9.960;2023-04-12T04:31:53;99362.75;;;4.09;74.35
39443;BME280;25147;52.142;9.960;2023-04-12T04:34:21;99562.19;;;5.39;74.72
39443;BME280;25147;52.142;9.960;2023-04-12T04:36:51;99587.28;;;5.41;74.59
39443;BME280;25147;52.142;9.960;2023-04-12T04:39:17;99480.50;;;4.84;74.49
39443;BME280;25147;52.142;9.960;2023-04-12T04:41:45;99407.38;;;4.48;74.21
39443;BME280;25147;52.142;9.960;2023-04-12T04:44:19;99556.94;;;5.45;74.65
39443;BME280;25147;52.142;9.960;2023-04-12T04:46:46;99559.59;;;5.43;74.86
39443;BME280;25147;52.142;9.960;2023-04-12T04:49:14;99398.69;;;4.52;75.28
39443;BME280;25147;52.142;9.960;2023-04-12T04:51:41;99585.53;;;5.43;75.45
39443;BME280;25147;52.142;9.960;2023-04-12T04:54:09;99074.91;;;2.45;75.53
39443;BME280;25147;52.142;9.960;2023-04-12T04:56:35;99557.00;;;5.40;75.45
39443;BME280;25147;52.142;9.960;2023-04-12T04:59:02;99176.09;;;3.30;75.91
39443;BME280;25147;52.142;9.960;2023-04-12T05:01:29;99476.00;;;5.08;75.66
39443;BME280;25147;52.142;9.960;2023-04-12T05:03:56;99557.72;;;5.58;76.06
39443;BME280;25147;52.142;9.960;2023-04-12T05:06:23;99358.06;;;4.54;75.59
39443;BME280;25147;52.142;9.960;2023-04-12T05:08:50;99377.78;;;4.72;75.94
39443;BME280;25147;52.142;9.960;2023-04-12T05:11:19;99237.78;;;3.82;75.46
39443;BME280;25147;52.142;9.960;2023-04-12T05:13:46;99370.03;;;4.71;75.43
39443;BME280;25147;52.142;9.960;2023-04-12T05:16:13;99212.66;;;3.95;75.39
39443;BME280;25147;52.142;9.960;2023-04-12T05:18:40;99381.97;;;4.87;75.15
39443;BME280;25147;52.142;9.960;2023-04-12T05:21:06;99150.69;;;3.77;75.23
39443;BME280;25147;52.142;9.960;2023-04-12T05:23:34;99510.53;;;5.98;74.93
39443;BME280;25147;52.142;9.960;2023-04-12T05:26:02;99555.47;;;6.06;74.46
39443;BME280;25147;52.142;9.960;2023-04-12T05:28:30;99347.13;;;5.10;74.02
39443;BME280;25147;52.142;9.960;2023-04-12T05:30:57;99447.53;;;5.79;74.16
39443;BME280;25147;52.142;9.960;2023-04-12T05:33:24;99378.69;;;5.49;73.17
39443;BME280;25147;52.142;9.960;2023-04-12T05:35:51;99455.13;;;5.97;73.33
39443;BME280;25147;52.142;9.960;2023-04-12T05:38:18;99500.63;;;6.29;73.34
39443;BME280;25147;52.142;9.960;2023-04-12T05:40:45;99523.09;;;6.33;72.99
39443;BME280;25147;52.142;9.960;2023-04-12T05:43:14;99431.81;;;5.91;73.19
39443;BME280;25147;52.142;9.960;2023-04-12T05:45:43;99487.53;;;6.35;72.63
39443;BME280;25147;52.142;9.960;2023-04-12T05:48:10;99478.00;;;6.37;72.84
39443;BME280;25147;52.142;9.960;2023-04-12T05:50:38;99475.41;;;6.36;72.86
39443;BME280;25147;52.142;9.960;2023-04-12T05:53:04;99515.31;;;6.33;72.52
39443;BME280;25147;52.142;9.960;2023-04-12T05:55:31;99380.94;;;5.75;72.38
39443;BME280;25147;52.142;9.960;2023-04-12T05:57:58;99386.13;;;5.76;72.43
39443;BME280;25147;52.142;9.960;2023-04-12T06:00:25;99469.47;;;6.25;72.70
39443;BME280;25147;52.142;9.960;2023-04-12T06:02:53;99178.63;;;4.31;72.68
39443;BME280;25147;52.142;9.960;2023-04-12T06:05:21;99453.19;;;6.15;72.98
39443;BME280;25147;52.142;9.960;2023-04-12T06:07:48;99424.03;;;5.88;73.09
39443;BME280;25147;52.142;9.960;2023-04-12T06:10:15;99251.41;;;4.88;72.89
39443;BME280;25147;52.142;9.960;2023-04-12T06:12:42;99278.03;;;5.02;73.15
39443;BME280;25147;52.142;9.960;2023-04-12T06:15:09;99445.38;;;6.15;73.75
39443;BME280;25147;52.142;9.960;2023-04-12T06:17:36;99455.72;;;6.16;73.48
39443;BME280;25147;52.142;9.960;2023-04-12T06:20:06;99208.31;;;4.79;73.72
39443;BME280;25147;52.142;9.960;2023-04-12T06:22:34;99440.22;;;6.10;73.99
39443;BME280;25147;52.142;9.960;2023-04-12T06:25:00;99437.44;;;6.26;74.46
39443;BME280;25147;52.142;9.960;2023-04-12T06:27:28;99425.19;;;6.32;73.85
39443;BME280;25147;52.142;9.960;2023-04-12T06:29:55;99080.34;;;4.17;73.47
39443;BME280;25147;52.142;9.960;2023-04-12T06:32:21;99269.56;;;5.55;73.85
39443;BME280;25147;52.142;9.960;2023-04-12T06:34:48;99411.81;;;6.55;73.52
39443;BME280;25147;52.142;9.960;2023-04-12T06:37:16;98996.75;;;4.07;74.06
39443;BME280;25147;52.142;9.960;2023-04-12T06:39:43;99065.88;;;4.67;73.80
39443;BME280;25147;52.142;9.960;2023-04-12T06:42:10;99435.63;;;6.83;73.87
39443;BME280;25147;52.142;9.960;2023-04-12T06:44:37;99029.69;;;4.61;73.54
39443;BME280;25147;52.142;9.960;2023-04-12T06:47:04;99308.72;;;6.54;73.64
39443;BME280;25147;52.142;9.960;2023-04-12T06:49:31;99323.63;;;6.93;73.40
39443;BME280;25147;52.142;9.960;2023-04-12T06:51:58;99265.84;;;6.75;73.32
39443;BME280;25147;52.142;9.960;2023-04-12T06:54:26;99392.72;;;7.53;73.68
39443;BME280;25147;52.142;9.960;2023-04-12T06:56:52;99232.56;;;6.93;73.30
39443;BME280;25147;52.142;9.960;2023-04-12T06:59:20;99230.63;;;7.02;72.97
39443;BME280;25147;52.142;9.960;2023-04-12T07:01:47;99360.72;;;7.88;72.86
39443;BME280;25147;52.142;9.960;2023-04-12T07:04:14;99061.66;;;6.15;72.29
39443;BME280;25147;52.142;9.960;2023-04-12T07:06:41;99106.69;;;6.59;72.48
39443;BME280;25147;52.142;9.960;2023-04-12T07:09:08;99378.38;;;8.14;72.23
39443;BME280;25147;52.142;9.960;2023-04-12T07:11:37;99105.66;;;6.65;72.46
39443;BME280;25147;52.142;9.960;2023-04-12T07:14:04;99069.53;;;6.53;72.13
39443;BME280;25147;52.142;9.960;2023-04-12T07:16:31;99059.09;;;6.54;72.39
39443;BME280;25147;52.142;9.960;2023-04-12T07:18:58;99242.13;;;7.70;72.44
39443;BME280;25147;52.142;9.960;2023-04-12T07:21:25;99333.66;;;8.30;72.43
39443;BME280;25147;52.142;9.960;2023-04-12T07:23:52;99149.38;;;7.29;72.97
39443;BME280;25147;52.142;9.960;2023-04-12T07:26:19;99324.25;;;8.24;73.16
39443;BME280;25147;52.142;9.960;2023-04-12T07:28:48;98891.16;;;5.68;72.51
39443;BME280;25147;52.142;9.960;2023-04-12T07:31:15;99332.31;;;8.15;73.48
39443;BME280;25147;52.142;9.960;2023-04-12T07:33:42;98943.34;;;5.99;73.39
39443;BME280;25147;52.142;9.960;2023-04-12T07:36:09;98832.22;;;5.32;73.37
39443;BME280;25147;52.142;9.960;2023-04-12T07:38:37;99112.78;;;6.96;73.56
39443;BME280;25147;52.142;9.960;2023-04-12T07:41:04;98767.75;;;5.12;73.34
39443;BME280;25147;52.142;9.960;2023-04-12T07:43:31;99129.25;;;7.35;73.73
39443;BME280;25147;52.142;9.960;2023-04-12T07:45:59;99022.16;;;6.77;74.09
39443;BME280;25147;52.142;9.960;2023-04-12T07:48:29;99134.34;;;7.40;73.65
39443;BME280;25147;52.142;9.960;2023-04-12T07:50:56;99272.19;;;8.57;73.40
39443;BME280;25147;52.142;9.960;2023-04-12T07:53:24;99258.09;;;8.62;72.77
39443;BME280;25147;52.142;9.960;2023-04-12T07:55:52;99162.31;;;8.35;72.32
39443;BME280;25147;52.142;9.960;2023-04-12T07:58:20;98942.03;;;7.26;71.84
39443;BME280;25147;52.142;9.960;2023-04-12T08:00:47;99233.56;;;9.29;71.17
39443;BME280;25147;52.142;9.960;2023-04-12T08:03:17;99236.53;;;9.47;70.08
39443;BME280;25147;52.142;9.960;2023-04-12T08:05:44;99030.94;;;8.39;69.18
39443;BME280;25147;52.142;9.960;2023-04-12T08:08:13;99250.06;;;9.59;68.77
39443;BME280;25147;52.142;9.960;2023-04-12T08:10:40;99115.59;;;8.88;67.60
39443;BME280;25147;52.142;9.960;2023-04-12T08:13:07;98802.38;;;6.94;68.08
39443;BME280;25147;52.142;9.960;2023-04-12T08:15:34;99208.47;;;9.53;67.49
39443;BME280;25147;52.142;9.960;2023-04-12T08:18:01;98946.41;;;7.88;67.48
39443;BME280;25147;52.142;9.960;2023-04-12T08:20:30;98906.72;;;7.49;67.65
39443;BME280;25147;52.142;9.960;2023-04-12T08:22:57;98871.59;;;7.32;68.26
39443;BME280;25147;52.142;9.960;2023-04-12T08:25:24;99200.53;;;9.28;68.06
39443;BME280;25147;52.142;9.960;2023-04-12T08:27:51;99158.50;;;9.08;68.28
39443;BME280;25147;52.142;9.960;2023-04-12T08:30:18;98778.94;;;6.64;68.36
39443;BME280;25147;52.142;9.960;2023-04-12T08:32:45;99130.41;;;8.88;68.61
39443;BME280;25147;52.142;9.960;2023-04-12T08:35:13;99192.72;;;9.28;69.33
39443;BME280;25147;52.142;9.960;2023-04-12T08:37:41;99000.13;;;8.22;68.38
39443;BME280;25147;52.142;9.960;2023-04-12T08:40:08;98903.88;;;7.56;68.47
39443;BME280;25147;52.142;9.960;2023-04-12T08:42:37;99116.34;;;8.92;68.38
39443;BME280;25147;52.142;9.960;2023-04-12T08:45:07;99006.31;;;8.19;68.69
39443;BME280;25147;52.142;9.960;2023-04-12T08:47:36;99026.13;;;8.25;68.75
39443;BME280;25147;52.142;9.960;2023-04-12T08:50:04;99197.34;;;9.18;68.82
39443;BME280;25147;52.142;9.960;2023-04-12T08:52:34;99175.69;;;9.15;70.23
39443;BME280;25147;52.142;9.960;2023-04-12T08:55:03;99113.56;;;8.68;70.92
39443;BME280;25147;52.142;9.960;2023-04-12T08:57:30;99171.91;;;8.95;71.96
39443;BME280;25147;52.142;9.960;2023-04-12T08:59:58;99191.88;;;8.98;73.08
39443;BME280;25147;52.142;9.960;2023-04-12T09:02:26;99143.88;;;8.72;73.80
39443;BME280;25147;52.142;9.960;2023-04-12T09:04:54;99105.56;;;8.44;74.83
39443;BME280;25147;52.142;9.960;2023-04-12T09:07:22;99161.16;;;8.76;76.02
39443;BME280;25147;52.142;9.960;2023-04-12T09:09:53;99157.03;;;8.69;76.84
39443;BME280;25147;52.142;9.960;2023-04-12T09:12:22;99119.50;;;8.43;77.51
39443;BME280;25147;52.142;9.960;2023-04-12T09:15:04;99149.56;;;8.57;78.02
39443;BME280;25147;52.142;9.960;2023-04-12T09:17:33;98953.81;;;7.41;77.99
39443;BME280;25147;52.142;9.960;2023-04-12T09:20:01;98976.94;;;7.52;78.69
39443;BME280;25147;52.142;9.960;2023-04-12T09:22:33;99149.06;;;8.42;80.10
39443;BME280;25147;52.142;9.960;2023-04-12T09:25:00;99136.94;;;8.40;80.46
39443;BME280;25147;52.142;9.960;2023-04-12T09:27:28;98909.59;;;7.07;81.32
39443;BME280;25147;52.142;9.960;2023-04-12T09:30:05;99110.25;;;8.32;82.03
39443;BME280;25147;52.142;9.960;2023-04-12T09:32:32;98847.34;;;6.66;82.51
39443;BME280;25147;52.142;9.960;2023-04-12T09:34:59;98741.88;;;5.87;83.18
39443;BME280;25147;52.142;9.960;2023-04-12T09:37:26;98923.28;;;7.13;84.22
39443;BME280;25147;52.142;9.960;2023-04-12T09:40:00;99031.78;;;7.78;85.10
39443;BME280;25147;52.142;9.960;2023-04-12T09:42:32;99083.97;;;8.08;86.00
39443;BME280;25147;52.142;9.960;2023-04-12T09:45:00;98967.31;;;7.55;86.26
39443;BME280;25147;52.142;9.960;2023-04-12T09:47:37;99111.00;;;8.35;86.88
39443;BME280;25147;52.142;9.960;2023-04-12T09:50:05;99018.66;;;7.81;87.51
39443;BME280;25147;52.142;9.960;2023-04-12T09:52:36;99096.31;;;8.33;88.10
39443;BME280;25147;52.142;9.960;2023-04-12T09:55:07;99098.00;;;8.34;88.74
39443;BME280;25147;52.142;9.960;2023-04-12T09:57:37;98828.84;;;6.77;89.69
39443;BME280;25147;52.142;9.960;2023-04-12T10:00:06;98789.09;;;6.39;89.55
39443;BME280;25147;52.142;9.960;2023-04-12T10:02:37;98988.81;;;7.62;90.80
39443;BME280;25147;52.142;9.960;2023-04-12T10:05:06;98745.34;;;6.22;90.98
39443;BME280;25147;52.142;9.960;2023-04-12T10:07:35;98959.34;;;7.60;92.04
39443;BME280;25147;52.142;9.960;2023-04-12T10:10:03;99051.44;;;8.21;92.64
39443;BME280;25147;52.142;9.960;2023-04-12T10:12:31;99060.03;;;8.25;92.61
39443;BME280;25147;52.142;9.960;2023-04-12T10:15:02;98775.72;;;6.54;92.20
39443;BME280;25147;52.142;9.960;2023-04-12T10:17:31;99046.00;;;8.29;92.79
39443;BME280;25147;52.142;9.960;2023-04-12T10:19:58;98949.78;;;7.60;93.38
39443;BME280;25147;52.142;9.960;2023-04-12T10:22:25;98928.06;;;7.61;92.97
39443;BME280;25147;52.142;9.960;2023-04-12T10:24:51;98838.47;;;7.06;92.90
39443;BME280;25147;52.142;9.960;2023-04-12T10:27:23;98839.50;;;7.00;92.57
39443;BME280;25147;52.142;9.960;2023-04-12T10:29:51;99051.75;;;8.40;92.40
39443;BME280;25147;52.142;9.960;2023-04-12T10:32:21;99048.94;;;8.48;93.38
39443;BME280;25147;52.142;9.960;2023-04-12T10:34:51;98838.78;;;7.27;92.81
39443;BME280;25147;52.142;9.960;2023-04-12T10:37:19;99044.06;;;8.67;92.88
39443;BME280;25147;52.142;9.960;2023-04-12T10:39:51;98870.94;;;7.85;92.61
39443;BME280;25147;52.142;9.960;2023-04-12T10:42:20;99044.97;;;8.93;92.33
39443;BME280;25147;52.142;9.960;2023-04-12T10:44:48;98836.59;;;8.00;92.18
39443;BME280;25147;52.142;9.960;2023-04-12T10:47:56;98970.88;;;8.97;92.18
39443;BME280;25147;52.142;9.960;2023-04-12T10:50:31;98967.19;;;9.04;91.02
39443;BME280;25147;52.142;9.960;2023-04-12T10:53:24;99008.31;;;9.49;90.50
39443;BME280;25147;52.142;9.960;2023-04-12T10:55:51;98998.41;;;9.59;90.28
39443;BME280;25147;52.142;9.960;2023-04-12T10:58:56;98991.94;;;9.69;89.14
39443;BME280;25147;52.142;9.960;2023-04-12T11:01:23;98933.66;;;9.42;89.03
39443;BME280;25147;52.142;9.960;2023-04-12T11:04:08;98987.72;;;9.89;88.83
39443;BME280;25147;52.142;9.960;2023-04-12T11:06:53;98989.50;;;9.88;87.96
39443;BME280;25147;52.142;9.960;2023-04-12T11:09:22;98987.16;;;9.80;88.17
39443;BME280;25147;52.142;9.960;2023-04-12T11:11:50;98980.69;;;9.91;86.82
39443;BME280;25147;52.142;9.960;2023-04-12T11:14:17;98990.44;;;9.87;86.76
39443;BME280;25147;52.142;9.960;2023-04-12T11:17:21;98987.97;;;9.82;86.71
39443;BME280;25147;52.142;9.960;2023-04-12T11:19:51;98985.38;;;9.81;86.20
39443;BME280;25147;52.142;9.960;2023-04-12T11:22:19;98999.38;;;9.80;86.54
39443;BME280;25147;52.142;9.960;2023-04-12T11:24:49;98982.84;;;9.79;85.93
39443;BME280;25147;52.142;9.960;2023-04-12T11:27:18;98975.69;;;9.61;86.22
39443;BME280;25147;52.142;9.960;2023-04-12T11:29:48;98968.47;;;9.68;86.62
39443;BME280;25147;52.142;9.960;2023-04-12T11:32:15;98973.88;;;9.63;86.13
39443;BME280;25147;52.142;9.960;2023-04-12T11:34:42;98762.81;;;8.25;86.92
39443;BME280;25147;52.142;9.960;2023-04-12T11:37:11;98840.84;;;8.58;86.26
39443;BME280;25147;52.142;9.960;2023-04-12T11:39:39;98556.50;;;6.82;86.43
39443;BME280;25147;52.142;9.960;2023-04-12T11:42:11;98766.69;;;8.13;87.13
39443;BME280;25147;52.142;9.960;2023-04-12T11:44:40;98957.34;;;9.37;87.72
39443;BME280;25147;52.142;9.960;2023-04-12T11:47:12;98956.06;;;9.49;87.66
39443;BME280;25147;52.142;9.960;2023-04-12T11:49:42;98943.59;;;9.32;87.16
39443;BME280;25147;52.142;9.960;2023-04-12T11:52:10;98947.97;;;9.57;87.24
39443;BME280;25147;52.142;9.960;2023-04-12T11:54:41;98961.53;;;9.67;86.98
39443;BME280;25147;52.142;9.960;2023-04-12T11:57:10;98880.59;;;9.16;86.81
39443;BME280;25147;52.142;9.960;2023-04-12T11:59:37;98735.53;;;8.35;87.34
39443;BME280;25147;52.142;9.960;2023-04-12T12:02:04;98950.84;;;9.73;87.14
39443;BME280;25147;52.142;9.960;2023-04-12T12:04:31;98950.03;;;9.71;87.12
39443;BME280;25147;52.142;9.960;2023-04-12T12:06:58;98948.09;;;9.52;87.12
39443;BME280;25147;52.142;9.960;2023-04-12T12:09:26;98949.56;;;9.61;87.83
39443;BME280;25147;52.142;9.960;2023-04-12T12:11:53;98801.50;;;8.64;88.49
39443;BME280;25147;52.142;9.960;2023-04-12T12:14:22;98941.53;;;9.66;88.18
39443;BME280;25147;52.142;9.960;2023-04-12T12:16:53;98952.88;;;9.64;87.62
39443;BME280;25147;52.142;9.960;2023-04-12T12:19:28;98941.13;;;9.76;88.48
39443;BME280;25147;52.142;9.960;2023-04-12T12:22:13;98943.38;;;9.87;88.23
39443;BME280;25147;52.142;9.960;2023-04-12T12:24:46;98938.47;;;10.01;88.17
39443;BME280;25147;52.142;9.960;2023-04-12T12:27:17;98940.72;;;10.11;88.07
39443;BME280;25147;52.142;9.960;2023-04-12T12:29:48;98949.19;;;10.17;87.49
39443;BME280;25147;52.142;9.960;2023-04-12T12:32:16;98687.34;;;8.71;87.62
39443;BME280;25147;52.142;9.960;2023-04-12T12:34:54;98825.72;;;9.65;87.91
39443;BME280;25147;52.142;9.960;2023-04-12T12:37:26;98909.47;;;10.31;87.70
39443;BME280;25147;52.142;9.960;2023-04-12T12:40:02;98904.81;;;10.38;87.80
39443;BME280;25147;52.142;9.960;2023-04-12T12:42:32;98791.66;;;9.67;86.97
39443;BME280;25147;52.142;9.960;2023-04-12T12:45:00;98798.66;;;9.66;87.19
39443;BME280;25147;52.142;9.960;2023-04-12T12:47:28;98880.09;;;10.01;87.29
39443;BME280;25147;52.142;9.960;2023-04-12T12:49:55;98904.81;;;10.16;87.97
39443;BME280;25147;52.142;9.960;2023-04-12T12:52:22;98864.97;;;9.87;88.56
39443;BME280;25147;52.142;9.960;2023-04-12T12:54:49;98849.72;;;9.75;88.60
39443;BME280;25147;52.142;9.960;2023-04-12T12:57:17;98700.34;;;8.72;88.56
39443;BME280;25147;52.142;9.960;2023-04-12T12:59:43;98527.16;;;7.57;88.60
39443;BME280;25147;52.142;9.960;2023-04-12T13:02:10;98913.75;;;9.87;88.87
39443;BME280;25147;52.142;9.960;2023-04-12T13:04:39;98931.75;;;9.71;89.79
39443;BME280;25147;52.142;9.960;2023-04-12T13:07:06;98889.31;;;9.64;90.32
39443;BME280;25147;52.142;9.960;2023-04-12T13:09:33;98733.28;;;8.51;91.01
39443;BME280;25147;52.142;9.960;2023-04-12T13:12:00;98734.06;;;8.53;91.42
39443;BME280;25147;52.142;9.960;2023-04-12T13:14:28;98585.19;;;7.60;91.21
39443;BME280;25147;52.142;9.960;2023-04-12T13:16:55;98892.28;;;9.55;91.92
39443;BME280;25147;52.142;9.960;2023-04-12T13:19:22;98899.22;;;9.56;92.67